createdAt,value
2023-05-23T00:02:05.251Z,97270.11
2023-05-23T00:04:33.177Z,97268.24
2023-05-23T00:07:01.616Z,97268.36
2023-05-23T00:09:29.602Z,97271.98
2023-05-23T00:11:57.446Z,97273.78
2023-05-23T00:14:26.050Z,97278.66
2023-05-23T00:16:54.604Z,97275.97
2023-05-23T00:19:22.717Z,97277.91
2023-05-23T00:21:52.552Z,97273.08
2023-05-23T00:24:20.657Z,97271.10
2023-05-23T00:26:48.654Z,97263.13
2023-05-23T00:29:16.997Z,97265.83
2023-05-23T00:31:46.051Z,97262.36
2023-05-23T00:34:19.300Z,97263.95
2023-05-23T00:36:47.206Z,97260.16
2023-05-23T00:39:17.044Z,97262.28
2023-05-23T00:41:52.245Z,97259.83
2023-05-23T00:44:20.902Z,97256.56
2023-05-23T00:46:53.472Z,97250.04
2023-05-23T00:49:22.094Z,97255.45
2023-05-23T00:51:51.671Z,97259.60
2023-05-23T00:54:29.107Z,97268.00
2023-05-23T00:56:57.320Z,97248.22
2023-05-23T00:59:26.188Z,97266.77
2023-05-23T01:01:57.442Z,97263.84
2023-05-23T01:04:25.949Z,97266.42
2023-05-23T01:06:56.131Z,97258.98
2023-05-23T01:09:27.304Z,97263.25
2023-05-23T01:12:00.381Z,97263.38
2023-05-23T01:14:36.279Z,97262.59
2023-05-23T01:17:15.691Z,97262.81
2023-05-23T01:20:04.656Z,97260.80
2023-05-23T01:23:01.997Z,97263.36
2023-05-23T01:26:05.755Z,97262.70
2023-05-23T01:28:37.824Z,97263.06
2023-05-23T01:31:08.763Z,97263.95
2023-05-23T01:33:38.637Z,97260.03
2023-05-23T01:36:08.814Z,97256.98
2023-05-23T01:38:36.546Z,97262.63
2023-05-23T01:41:04.342Z,97262.38
2023-05-23T01:43:32.558Z,97262.16
2023-05-23T01:46:01.594Z,97264.29
2023-05-23T01:48:31.036Z,97262.94
2023-05-23T01:50:59.579Z,97267.66
2023-05-23T01:53:30.387Z,97259.70
2023-05-23T01:56:00.870Z,97256.08
2023-05-23T01:58:30.012Z,97248.91
2023-05-23T02:00:58.252Z,97250.01
2023-05-23T02:03:26.469Z,97252.27
2023-05-23T02:05:55.949Z,97248.20
2023-05-23T02:08:23.817Z,97250.57
2023-05-23T02:10:51.844Z,97250.23
2023-05-23T02:13:21.179Z,97250.22
2023-05-23T02:15:48.998Z,97251.66
2023-05-23T02:18:17.648Z,97248.28
2023-05-23T02:20:45.641Z,97246.72
2023-05-23T02:23:13.543Z,97249.98
2023-05-23T02:25:41.735Z,97251.89
2023-05-23T02:28:11.429Z,97253.77
2023-05-23T02:30:40.267Z,97254.34
2023-05-23T02:33:08.302Z,97253.23
2023-05-23T02:35:35.960Z,97250.20
2023-05-23T02:38:03.806Z,97249.53
2023-05-23T02:40:31.537Z,97249.66
2023-05-23T02:42:59.283Z,97249.55
2023-05-23T02:45:27.856Z,97245.62
2023-05-23T02:47:55.638Z,97243.94
2023-05-23T02:50:23.315Z,97245.18
2023-05-23T02:52:51.254Z,97248.31
2023-05-23T02:55:19.426Z,97252.47
2023-05-23T02:57:48.637Z,97244.39
2023-05-23T03:00:17.203Z,97244.06
2023-05-23T03:02:46.917Z,97246.66
2023-05-23T03:05:14.904Z,97250.37
2023-05-23T03:07:43.655Z,97249.14
2023-05-23T03:10:11.567Z,97247.33
2023-05-23T03:12:39.362Z,97242.51
2023-05-23T03:15:09.670Z,97239.14
2023-05-23T03:17:39.689Z,97248.13
2023-05-23T03:20:09.498Z,97250.47
2023-05-23T03:22:37.368Z,97248.80
2023-05-23T03:25:06.634Z,97253.17
2023-05-23T03:27:34.441Z,97253.52
2023-05-23T03:30:04.901Z,97249.02
2023-05-23T03:32:32.891Z,97257.23
2023-05-23T03:35:00.911Z,97253.97
2023-05-23T03:37:28.401Z,97248.91
2023-05-23T03:39:56.102Z,97253.17
2023-05-23T03:42:24.180Z,97250.41
2023-05-23T03:44:52.095Z,97246.23
2023-05-23T03:47:24.050Z,97250.71
2023-05-23T03:49:51.865Z,97247.08
2023-05-23T03:52:19.854Z,97249.55
2023-05-23T03:54:53.820Z,97242.98
2023-05-23T03:57:22.416Z,97249.33
2023-05-23T03:59:52.554Z,97245.31
2023-05-23T04:02:21.387Z,97248.13
2023-05-23T04:04:49.345Z,97251.55
2023-05-23T04:07:17.336Z,97253.98
2023-05-23T04:09:46.117Z,97256.50
2023-05-23T04:12:16.496Z,97249.45
2023-05-23T04:14:44.357Z,97251.58
2023-05-23T04:17:12.643Z,97255.17
2023-05-23T04:19:40.466Z,97247.45
2023-05-23T04:22:08.459Z,97248.63
2023-05-23T04:24:38.326Z,97225.95
2023-05-23T04:27:07.432Z,97242.54
2023-05-23T04:29:35.867Z,97244.28
2023-05-23T04:32:06.262Z,97247.69
2023-05-23T04:37:50.535Z,97249.89
2023-05-23T04:40:20.389Z,97250.88
2023-05-23T04:42:59.384Z,97254.66
2023-05-23T04:45:32.465Z,97251.92
2023-05-23T04:48:04.337Z,97254.09
2023-05-23T04:50:35.604Z,97261.24
2023-05-23T04:53:04.677Z,97266.20
2023-05-23T04:55:33.492Z,97260.42
2023-05-23T04:58:01.641Z,97261.08
2023-05-23T05:00:29.903Z,97263.63
2023-05-23T05:02:58.283Z,97259.12
2023-05-23T05:05:28.259Z,97259.28
2023-05-23T05:07:56.679Z,97259.64
2023-05-23T05:10:24.960Z,97253.88
2023-05-23T05:12:54.687Z,97252.92
2023-05-23T05:15:23.397Z,97262.31
2023-05-23T05:17:53.357Z,97265.11
2023-05-23T05:20:22.774Z,97261.00
2023-05-23T05:22:57.562Z,97268.23
2023-05-23T05:25:27.072Z,97261.56
2023-05-23T05:27:55.077Z,97265.86
2023-05-23T05:30:23.251Z,97263.33
2023-05-23T05:32:55.075Z,97258.22
2023-05-23T05:35:23.542Z,97261.33
2023-05-23T05:37:51.718Z,97255.98
2023-05-23T05:40:19.751Z,97257.41
2023-05-23T05:42:48.623Z,97259.98
2023-05-23T05:45:18.933Z,97252.20
2023-05-23T05:47:52.318Z,97256.22
2023-05-23T05:50:21.896Z,97258.95
2023-05-23T05:52:50.690Z,97264.16
2023-05-23T05:55:18.788Z,97255.64
2023-05-23T05:57:48.667Z,97247.32
2023-05-23T06:00:18.904Z,97245.80
2023-05-23T06:02:47.302Z,97247.56
2023-05-23T06:05:17.659Z,97246.73
2023-05-23T06:07:49.469Z,97245.71
2023-05-23T06:10:17.567Z,97250.43
2023-05-23T06:12:45.677Z,97247.42
2023-05-23T06:15:15.471Z,97246.41
2023-05-23T06:17:44.402Z,97254.51
2023-05-23T06:20:17.151Z,97247.36
2023-05-23T06:22:51.395Z,97247.00
2023-05-23T06:25:19.685Z,97245.57
2023-05-23T06:27:50.925Z,97246.95
2023-05-23T06:30:35.398Z,97250.83
2023-05-23T06:33:05.804Z,97249.31
2023-05-23T06:35:57.048Z,97240.10
2023-05-23T06:38:33.216Z,97237.27
2023-05-23T06:41:02.082Z,97241.63
2023-05-23T06:43:31.808Z,97235.55
2023-05-23T06:46:18.467Z,97232.27
2023-05-23T06:48:46.681Z,97235.02
2023-05-23T06:51:14.794Z,97236.02
2023-05-23T06:53:42.726Z,97239.05
2023-05-23T06:56:10.479Z,97234.66
2023-05-23T06:58:40.667Z,97230.02
2023-05-23T07:01:10.391Z,97230.12
2023-05-23T07:03:43.147Z,97230.66
2023-05-23T07:06:12.847Z,97229.25
2023-05-23T07:08:40.876Z,97223.32
2023-05-23T07:11:12.299Z,97220.12
2023-05-23T07:13:50.320Z,97212.87
2023-05-23T07:16:38.996Z,97208.20
2023-05-23T07:19:15.640Z,97203.45
2023-05-23T07:21:48.836Z,97206.47
2023-05-23T07:24:18.763Z,97198.38
2023-05-23T07:26:46.789Z,97208.71
2023-05-23T07:29:15.177Z,97199.41
2023-05-23T07:31:44.027Z,97195.33
2023-05-23T07:34:13.371Z,97194.56
2023-05-23T07:37:07.401Z,97195.17
2023-05-23T07:39:37.866Z,97198.00
2023-05-23T07:42:06.430Z,97194.00
2023-05-23T07:44:54.825Z,97189.94
2023-05-23T07:47:24.077Z,97195.14
2023-05-23T07:50:05.053Z,97193.60
2023-05-23T07:52:40.644Z,97193.05
2023-05-23T07:55:12.716Z,97192.75
2023-05-23T07:57:46.732Z,97193.75
2023-05-23T08:00:21.779Z,97198.89
2023-05-23T08:02:57.090Z,97190.98
2023-05-23T08:05:28.916Z,97195.80
2023-05-23T08:07:58.282Z,97189.58
2023-05-23T08:10:29.059Z,97195.38
2023-05-23T08:13:00.694Z,97195.68
2023-05-23T08:15:32.011Z,97193.48
2023-05-23T08:18:04.401Z,97185.31
2023-05-23T08:20:40.824Z,97190.34
2023-05-23T08:23:14.876Z,97186.38
2023-05-23T08:25:43.346Z,97186.38
2023-05-23T08:28:12.547Z,97186.01
2023-05-23T08:30:56.822Z,97187.42
2023-05-23T08:33:47.083Z,97183.00
2023-05-23T08:36:15.417Z,97180.54
2023-05-23T08:38:44.333Z,97175.09
2023-05-23T08:41:24.149Z,97173.68
2023-05-23T08:43:54.212Z,97174.88
2023-05-23T08:46:24.293Z,97167.77
2023-05-23T08:48:54.924Z,97172.00
2023-05-23T08:51:28.361Z,97173.14
2023-05-23T08:53:59.625Z,97166.55
2023-05-23T08:56:31.166Z,97163.94
2023-05-23T08:58:59.721Z,97160.39
2023-05-23T09:01:30.459Z,97159.86
2023-05-23T09:04:01.254Z,97161.66
2023-05-23T09:06:32.862Z,97163.13
2023-05-23T09:09:02.057Z,97160.44
2023-05-23T09:11:35.185Z,97159.06
2023-05-23T09:14:04.734Z,97153.39
2023-05-23T09:19:47.884Z,97156.69
2023-05-23T09:22:28.693Z,97156.54
2023-05-23T09:25:02.739Z,97142.64
2023-05-23T09:27:31.663Z,97145.13
2023-05-23T09:30:06.988Z,97145.77
2023-05-23T09:32:35.536Z,97149.16
2023-05-23T09:35:07.781Z,97145.09
2023-05-23T09:37:45.241Z,97144.91
2023-05-23T09:40:17.427Z,97132.39
2023-05-23T09:42:51.751Z,97140.53
2023-05-23T09:45:20.021Z,97140.88
2023-05-23T09:47:53.984Z,97139.50
2023-05-23T09:50:23.618Z,97142.41
2023-05-23T09:52:53.929Z,97126.31
2023-05-23T09:55:22.025Z,97125.73
2023-05-23T09:57:58.459Z,97123.20
2023-05-23T10:00:32.630Z,97121.48
2023-05-23T10:03:13.972Z,97115.03
2023-05-23T10:05:52.363Z,97113.73
2023-05-23T10:08:29.164Z,97112.97
2023-05-23T10:11:17.067Z,97107.23
2023-05-23T10:13:49.262Z,97106.47
2023-05-23T10:16:40.434Z,97111.25
2023-05-23T10:19:19.728Z,97094.19
2023-05-23T10:21:53.790Z,97095.32
2023-05-23T10:24:22.481Z,97092.26
2023-05-23T10:26:50.986Z,97086.87
2023-05-23T10:29:23.036Z,97082.09
2023-05-23T10:31:53.402Z,97078.99
2023-05-23T10:34:55.584Z,97077.61
2023-05-23T10:37:28.939Z,97067.27
2023-05-23T10:40:23.621Z,97067.13
2023-05-23T10:43:11.888Z,97060.94
2023-05-23T10:45:47.014Z,97062.94
2023-05-23T10:48:32.274Z,97060.33
2023-05-23T10:51:14.787Z,97058.48
2023-05-23T10:53:45.511Z,97053.67
2023-05-23T10:56:25.381Z,97057.81
2023-05-23T10:59:24.836Z,97050.44
2023-05-23T11:01:35.473Z,97044.47
2023-05-23T11:04:07.571Z,97050.47
2023-05-23T11:06:44.796Z,97048.47
2023-05-23T11:09:18.897Z,97041.52
2023-05-23T11:12:05.254Z,97041.48
2023-05-23T11:14:53.226Z,97035.01
2023-05-23T11:17:33.342Z,97028.86
2023-05-23T11:20:16.263Z,97029.63
2023-05-23T11:23:17.209Z,97030.69
2023-05-23T11:26:05.588Z,97027.57
2023-05-23T11:28:59.095Z,97027.49
2023-05-23T11:31:27.579Z,97015.80
2023-05-23T11:33:56.735Z,97018.41
2023-05-23T11:36:40.919Z,97019.74
2023-05-23T11:39:35.535Z,97021.25
2023-05-23T11:42:35.603Z,97022.33
2023-05-23T11:45:04.628Z,97023.95
2023-05-23T11:54:17.218Z,97016.42
2023-05-23T11:57:13.558Z,97014.11
2023-05-23T11:59:46.419Z,97000.11
2023-05-23T12:02:14.729Z,97005.20
2023-05-23T12:04:44.911Z,97008.71
2023-05-23T12:07:13.211Z,97001.19
2023-05-23T12:09:59.414Z,96996.70
2023-05-23T12:12:30.060Z,96987.91
2023-05-23T12:15:09.295Z,96978.81
2023-05-23T12:18:11.547Z,96983.73
2023-05-23T12:34:21.410Z,96971.25
2023-05-23T12:41:03.772Z,96969.90
2023-05-23T12:47:47.429Z,96966.80
2023-05-23T12:50:18.524Z,96964.95
2023-05-23T12:52:56.665Z,96963.27
2023-05-23T12:56:03.967Z,96958.05
2023-05-23T12:58:34.761Z,96958.53
2023-05-23T13:14:06.726Z,96947.59
2023-05-23T13:17:21.689Z,96949.12
2023-05-23T14:34:49.081Z,96923.03
2023-05-23T14:38:03.609Z,96928.50
2023-05-23T14:40:32.521Z,96921.28
2023-05-23T14:43:16.510Z,96922.30
2023-05-23T14:46:23.909Z,96926.44
2023-05-23T14:52:18.259Z,96924.36
2023-05-23T14:54:46.582Z,96931.34
2023-05-23T14:57:14.766Z,96919.50
2023-05-23T14:59:43.079Z,96925.27
2023-05-23T15:02:11.410Z,96921.00
2023-05-23T15:04:39.583Z,96918.55
2023-05-23T15:07:09.692Z,96916.30
2023-05-23T15:09:42.383Z,96918.07
2023-05-23T15:12:14.359Z,96919.34
2023-05-23T15:14:44.530Z,96915.38
2023-05-23T15:17:14.949Z,96915.02
2023-05-23T15:19:45.372Z,96910.70
2023-05-23T15:22:36.544Z,96912.27
2023-05-23T15:24:52.956Z,96910.91
2023-05-23T15:27:24.561Z,96904.43
2023-05-23T15:30:12.124Z,96904.46
2023-05-23T15:32:41.229Z,96911.98
2023-05-23T15:35:23.130Z,96907.46
2023-05-23T15:37:53.760Z,96903.75
2023-05-23T15:40:22.010Z,96898.04
2023-05-23T15:42:50.820Z,96894.75
2023-05-23T15:45:22.088Z,96898.55
2023-05-23T15:47:51.566Z,96894.45
2023-05-23T15:50:19.755Z,96896.11
2023-05-23T15:52:48.987Z,96897.44
2023-05-23T15:55:16.822Z,96898.09
2023-05-23T15:57:44.877Z,96908.31
2023-05-23T16:00:18.051Z,96906.05
2023-05-23T16:02:56.463Z,96903.96
2023-05-23T16:05:31.790Z,96902.61
2023-05-23T16:08:08.210Z,96904.70
2023-05-23T16:10:36.655Z,96908.89
2023-05-23T16:13:04.700Z,96908.89
2023-05-23T16:16:00.636Z,96920.67
2023-05-23T16:18:32.632Z,96919.02
2023-05-23T16:21:01.279Z,96912.96
2023-05-23T16:23:29.344Z,96918.70
2023-05-23T16:25:57.996Z,96913.17
2023-05-23T16:28:28.555Z,96917.09
2023-05-23T16:30:56.736Z,96920.02
2023-05-23T16:33:26.342Z,96914.31
2023-05-23T16:35:55.609Z,96911.77
2023-05-23T16:38:23.554Z,96934.82
2023-05-23T16:40:51.538Z,96931.24
2023-05-23T16:43:19.598Z,96934.28
2023-05-23T16:45:49.304Z,96937.61
2023-05-23T16:48:20.265Z,96931.41
2023-05-23T16:50:50.223Z,96943.05
2023-05-23T16:53:18.167Z,96945.50
2023-05-23T16:55:46.163Z,96944.43
2023-05-23T16:58:14.117Z,96946.50
2023-05-23T17:00:42.403Z,96946.05
2023-05-23T17:03:11.768Z,96948.50
2023-05-23T17:05:41.908Z,96946.72
2023-05-23T17:08:09.922Z,96950.39
2023-05-23T17:10:37.924Z,96953.98
2023-05-23T17:13:05.721Z,96951.03
2023-05-23T17:15:33.947Z,96952.23
2023-05-23T17:18:01.945Z,96958.73
2023-05-23T17:20:29.967Z,96952.17
2023-05-23T17:22:58.167Z,96950.84
2023-05-23T17:25:27.991Z,96952.82
2023-05-23T17:27:56.296Z,96949.61
2023-05-23T17:30:24.245Z,96958.58
2023-05-23T17:32:52.132Z,96960.80
2023-05-23T17:35:20.716Z,96961.22
2023-05-23T17:38:02.960Z,96965.05
2023-05-23T17:40:32.814Z,96968.44
2023-05-23T17:43:00.979Z,96969.87
2023-05-23T17:45:28.926Z,96966.60
2023-05-23T17:48:03.227Z,96966.27
2023-05-23T17:50:36.579Z,96971.20
2023-05-23T17:53:05.850Z,96970.70
2023-05-23T17:55:34.898Z,96971.16
2023-05-23T17:58:03.075Z,96967.33
2023-05-23T18:00:32.092Z,96970.54
2023-05-23T18:03:05.952Z,96970.39
2023-05-23T18:05:36.214Z,96971.63
2023-05-23T18:08:04.577Z,96974.02
2023-05-23T18:10:33.219Z,96978.55
2023-05-23T18:13:01.297Z,96967.83
2023-05-23T18:15:29.068Z,96971.97
2023-05-23T18:17:57.254Z,96974.91
2023-05-23T18:20:25.325Z,96986.43
2023-05-23T18:22:56.377Z,96987.23
2023-05-23T18:25:26.130Z,96990.16
2023-05-23T18:28:02.534Z,96994.08
2023-05-23T18:30:30.915Z,96994.08
2023-05-23T18:32:59.338Z,97005.58
2023-05-23T18:35:27.336Z,97010.45
2023-05-23T18:37:55.087Z,97003.63
2023-05-23T18:40:23.625Z,97010.78
2023-05-23T18:42:51.520Z,97014.87
2023-05-23T18:45:22.130Z,97010.98
2023-05-23T18:47:49.717Z,97020.70
2023-05-23T18:50:18.198Z,97023.59
2023-05-23T18:52:51.334Z,97027.08
2023-05-23T18:55:19.799Z,97031.13
2023-05-23T18:57:47.913Z,97033.62
2023-05-23T19:00:17.177Z,97034.35
2023-05-23T19:02:45.230Z,97038.02
2023-05-23T19:05:13.251Z,97041.28
2023-05-23T19:08:03.003Z,97048.80
2023-05-23T19:10:32.470Z,97041.59
2023-05-23T19:13:02.370Z,97042.89
2023-05-23T19:15:32.132Z,97039.38
2023-05-23T19:18:05.471Z,97046.72
2023-05-23T19:20:33.780Z,97045.91
2023-05-23T19:23:17.131Z,97042.36
2023-05-23T19:25:47.766Z,97048.14
2023-05-23T19:28:17.726Z,97052.19
2023-05-23T19:30:47.352Z,97052.16
2023-05-23T19:33:22.417Z,97046.53
2023-05-23T19:35:51.150Z,97055.05
2023-05-23T19:38:19.131Z,97054.80
2023-05-23T19:40:47.339Z,97055.95
2023-05-23T19:43:15.360Z,97062.12
2023-05-23T19:45:44.004Z,97062.69
2023-05-23T19:48:11.975Z,97073.14
2023-05-23T19:50:42.814Z,97067.67
2023-05-23T19:53:12.260Z,97071.13
2023-05-23T19:55:39.903Z,97067.42
2023-05-23T19:58:10.850Z,97067.97
2023-05-23T20:00:39.209Z,97071.23
2023-05-23T20:03:07.950Z,97067.61
2023-05-23T20:05:36.544Z,97070.69
2023-05-23T20:08:04.606Z,97078.38
2023-05-23T20:10:32.703Z,97081.41
2023-05-23T20:13:00.330Z,97081.53
2023-05-23T20:15:39.549Z,97082.65
2023-05-23T20:18:04.346Z,97082.77
2023-05-23T20:20:32.037Z,97089.48
2023-05-23T20:22:59.612Z,97084.70
2023-05-23T20:25:29.350Z,97089.65
2023-05-23T20:27:57.131Z,97088.55
2023-05-23T20:30:24.857Z,97083.62
2023-05-23T20:32:53.811Z,97088.42
2023-05-23T20:35:22.227Z,97086.23
2023-05-23T20:37:53.233Z,97090.31
2023-05-23T20:40:22.298Z,97086.81
2023-05-23T20:42:50.229Z,97090.99
2023-05-23T20:45:17.790Z,97097.63
2023-05-23T20:47:45.768Z,97093.85
2023-05-23T20:50:14.373Z,97094.58
2023-05-23T20:52:42.538Z,97097.99
2023-05-23T20:55:10.581Z,97100.31
2023-05-23T20:57:39.023Z,97114.22
2023-05-23T21:00:12.108Z,97111.69
2023-05-23T21:02:41.210Z,97111.25
2023-05-23T21:05:10.943Z,97111.78
2023-05-23T21:07:39.001Z,97116.17
2023-05-23T21:10:07.643Z,97124.03
2023-05-23T21:12:35.525Z,97118.55
2023-05-23T21:15:03.968Z,97123.52
2023-05-23T21:17:31.475Z,97120.37
2023-05-23T21:19:59.555Z,97129.66
2023-05-23T21:22:27.425Z,97126.89
2023-05-23T21:24:55.338Z,97125.25
2023-05-23T21:27:23.251Z,97124.21
2023-05-23T21:29:51.186Z,97127.30
2023-05-23T21:32:19.034Z,97127.44
2023-05-23T21:34:46.850Z,97123.52
2023-05-23T21:37:14.652Z,97131.79
2023-05-23T21:39:51.116Z,97137.78
2023-05-23T21:42:12.092Z,97143.34
2023-05-23T21:44:40.964Z,97144.88
2023-05-23T21:47:09.463Z,97147.93
2023-05-23T21:49:37.626Z,97147.09
2023-05-23T21:52:05.348Z,97144.75
2023-05-23T21:54:33.051Z,97144.52
2023-05-23T21:57:00.696Z,97146.39
2023-05-23T21:59:28.307Z,97148.26
2023-05-23T22:01:56.269Z,97141.28
2023-05-23T22:04:25.367Z,97144.33
2023-05-23T22:06:53.091Z,97138.07
2023-05-23T22:09:20.937Z,97138.79
2023-05-23T22:11:48.602Z,97142.84
2023-05-23T22:14:16.577Z,97138.38
2023-05-23T22:16:44.887Z,97137.74
2023-05-23T22:19:14.735Z,97146.00
2023-05-23T22:21:42.382Z,97147.94
2023-05-23T22:24:10.040Z,97143.03
2023-05-23T22:26:38.845Z,97141.47
2023-05-23T22:29:06.660Z,97139.67
2023-05-23T22:31:35.538Z,97137.95
2023-05-23T22:34:03.236Z,97142.02
2023-05-23T22:36:33.029Z,97135.25
2023-05-23T22:39:04.942Z,97139.30
2023-05-23T22:41:32.724Z,97138.70
2023-05-23T22:44:01.036Z,97135.89
2023-05-23T22:46:29.178Z,97139.34
2023-05-23T22:48:57.626Z,97142.76
2023-05-23T22:51:25.391Z,97136.23
2023-05-23T22:53:53.161Z,97136.73
2023-05-23T22:56:21.355Z,97137.95
2023-05-23T22:58:48.938Z,97134.40
2023-05-23T23:01:17.652Z,97134.05
2023-05-23T23:03:45.573Z,97128.50
2023-05-23T23:06:13.116Z,97123.84
2023-05-23T23:08:40.973Z,97123.57
2023-05-23T23:11:08.829Z,97122.14
2023-05-23T23:13:36.602Z,97119.00
2023-05-23T23:16:05.958Z,97123.05
2023-05-23T23:18:33.692Z,97135.16
2023-05-23T23:21:01.723Z,97127.74
2023-05-23T23:23:29.442Z,97135.44
2023-05-23T23:25:58.924Z,97136.35
2023-05-23T23:28:28.619Z,97136.14
2023-05-23T23:30:56.343Z,97128.73
2023-05-23T23:33:24.079Z,97135.83
2023-05-23T23:35:52.110Z,97135.50
2023-05-23T23:38:19.866Z,97135.05
2023-05-23T23:40:47.598Z,97133.98
2023-05-23T23:43:15.327Z,97143.37
2023-05-23T23:45:43.242Z,97140.51
2023-05-23T23:48:12.867Z,97141.05
2023-05-23T23:50:40.743Z,97136.66
2023-05-23T23:53:08.447Z,97141.24
2023-05-23T23:55:36.142Z,97142.72
2023-05-23T23:58:04.023Z,97141.44
